sensor_id;sensor_type;location;lat;lon;timestamp;P1;durP1;ratioP1;P2;durP2;ratioP2
5696;SDS011;2873;50.966;7.210;2022-11-15T00:00:43;13.20;;;9.65;;
5696;SDS011;2873;50.966;7.210;2022-11-15T00:03:08;13.40;;;9.50;;
5696;SDS011;2873;50.966;7.210;2022-11-15T00:05:34;14.60;;;9.70;;
5696;SDS011;2873;50.966;7.210;2022-11-15T00:08:00;15.15;;;9.68;;
5696;SDS011;2873;50.966;7.210;2022-11-15T00:10:26;15.90;;;10.03;;
5696;SDS011;2873;50.966;7.210;2022-11-15T00:12:52;12.60;;;9.00;;
5696;SDS011;2873;50.966;7.210;2022-11-15T00:15:17;10.83;;;9.20;;
5696;SDS011;2873;50.966;7.210;2022-11-15T00:17:43;13.77;;;9.95;;
5696;SDS011;2873;50.966;7.210;2022-11-15T00:20:08;14.00;;;10.10;;
5696;SDS011;2873;50.966;7.210;2022-11-15T00:22:34;14.68;;;9.52;;
5696;SDS011;2873;50.966;7.210;2022-11-15T00:25:00;12.67;;;9.17;;
5696;SDS011;2873;50.966;7.210;2022-11-15T00:27:25;14.98;;;9.90;;
5696;SDS011;2873;50.966;7.210;2022-11-15T00:29:52;13.20;;;9.30;;
5696;SDS011;2873;50.966;7.210;2022-11-15T00:32:18;12.80;;;9.27;;
5696;SDS011;2873;50.966;7.210;2022-11-15T00:34:43;14.00;;;9.23;;
5696;SDS011;2873;50.966;7.210;2022-11-15T00:37:09;13.32;;;9.40;;
5696;SDS011;2873;50.966;7.210;2022-11-15T00:39:34;14.63;;;9.40;;
5696;SDS011;2873;50.966;7.210;2022-11-15T00:42:00;11.90;;;8.85;;
5696;SDS011;2873;50.966;7.210;2022-11-15T00:44:25;13.40;;;9.10;;
5696;SDS011;2873;50.966;7.210;2022-11-15T00:46:51;12.77;;;9.00;;
5696;SDS011;2873;50.966;7.210;2022-11-15T00:49:17;14.00;;;8.90;;
5696;SDS011;2873;50.966;7.210;2022-11-15T00:51:42;13.00;;;9.27;;
5696;SDS011;2873;50.966;7.210;2022-11-15T00:54:08;12.60;;;9.43;;
5696;SDS011;2873;50.966;7.210;2022-11-15T00:56:33;16.65;;;9.40;;
5696;SDS011;2873;50.966;7.210;2022-11-15T00:58:59;14.40;;;8.90;;
5696;SDS011;2873;50.966;7.210;2022-11-15T01:01:25;13.23;;;9.65;;
5696;SDS011;2873;50.966;7.210;2022-11-15T01:03:50;15.23;;;9.57;;
5696;SDS011;2873;50.966;7.210;2022-11-15T01:06:16;14.80;;;9.30;;
5696;SDS011;2873;50.966;7.210;2022-11-15T01:08:41;14.20;;;9.37;;
5696;SDS011;2873;50.966;7.210;2022-11-15T01:11:08;14.50;;;9.20;;
5696;SDS011;2873;50.966;7.210;2022-11-15T01:13:36;13.57;;;9.00;;
5696;SDS011;2873;50.966;7.210;2022-11-15T01:16:06;14.30;;;9.10;;
5696;SDS011;2873;50.966;7.210;2022-11-15T01:18:37;14.55;;;9.38;;
5696;SDS011;2873;50.966;7.210;2022-11-15T01:21:11;12.45;;;9.07;;
5696;SDS011;2873;50.966;7.210;2022-11-15T01:23:41;16.52;;;9.80;;
5696;SDS011;2873;50.966;7.210;2022-11-15T01:26:09;15.98;;;9.00;;
5696;SDS011;2873;50.966;7.210;2022-11-15T01:28:37;14.55;;;9.35;;
5696;SDS011;2873;50.966;7.210;2022-11-15T01:31:05;12.70;;;9.30;;
5696;SDS011;2873;50.966;7.210;2022-11-15T01:33:36;12.85;;;9.68;;
5696;SDS011;2873;50.966;7.210;2022-11-15T01:36:05;20.15;;;9.55;;
5696;SDS011;2873;50.966;7.210;2022-11-15T01:38:32;16.40;;;9.35;;
5696;SDS011;2873;50.966;7.210;2022-11-15T01:40:59;14.35;;;9.82;;
5696;SDS011;2873;50.966;7.210;2022-11-15T01:45:53;15.20;;;9.88;;
5696;SDS011;2873;50.966;7.210;2022-11-15T01:48:27;17.40;;;9.60;;
5696;SDS011;2873;50.966;7.210;2022-11-15T01:50:57;12.48;;;9.40;;
5696;SDS011;2873;50.966;7.210;2022-11-15T01:53:30;14.50;;;9.70;;
5696;SDS011;2873;50.966;7.210;2022-11-15T01:55:58;13.53;;;9.90;;
5696;SDS011;2873;50.966;7.210;2022-11-15T01:58:26;16.42;;;10.10;;
5696;SDS011;2873;50.966;7.210;2022-11-15T02:00:52;13.90;;;9.67;;
5696;SDS011;2873;50.966;7.210;2022-11-15T02:03:17;14.98;;;9.85;;
5696;SDS011;2873;50.966;7.210;2022-11-15T02:05:46;13.93;;;8.67;;
5696;SDS011;2873;50.966;7.210;2022-11-15T02:08:12;14.55;;;9.00;;
5696;SDS011;2873;50.966;7.210;2022-11-15T02:10:44;10.55;;;8.90;;
5696;SDS011;2873;50.966;7.210;2022-11-15T02:13:16;12.27;;;9.23;;
5696;SDS011;2873;50.966;7.210;2022-11-15T02:16:05;16.10;;;9.85;;
5696;SDS011;2873;50.966;7.210;2022-11-15T02:18:41;13.10;;;9.30;;
5696;SDS011;2873;50.966;7.210;2022-11-15T02:21:40;15.50;;;8.90;;
5696;SDS011;2873;50.966;7.210;2022-11-15T02:25:09;14.65;;;8.90;;
5696;SDS011;2873;50.966;7.210;2022-11-15T02:33:16;10.77;;;8.80;;
5696;SDS011;2873;50.966;7.210;2022-11-15T02:36:10;10.20;;;8.52;;
5696;SDS011;2873;50.966;7.210;2022-11-15T02:38:43;9.70;;;7.90;;
5696;SDS011;2873;50.966;7.210;2022-11-15T02:41:24;10.97;;;8.37;;
5696;SDS011;2873;50.966;7.210;2022-11-15T02:44:03;15.00;;;8.70;;
5696;SDS011;2873;50.966;7.210;2022-11-15T02:46:37;13.95;;;8.07;;
5696;SDS011;2873;50.966;7.210;2022-11-15T02:49:45;10.50;;;7.95;;
5696;SDS011;2873;50.966;7.210;2022-11-15T02:52:16;10.60;;;8.00;;
5696;SDS011;2873;50.966;7.210;2022-11-15T02:54:43;9.48;;;7.78;;
5696;SDS011;2873;50.966;7.210;2022-11-15T02:57:42;10.35;;;7.65;;
5696;SDS011;2873;50.966;7.210;2022-11-15T03:00:31;9.88;;;7.47;;
5696;SDS011;2873;50.966;7.210;2022-11-15T03:03:20;13.05;;;8.10;;
5696;SDS011;2873;50.966;7.210;2022-11-15T03:06:15;9.40;;;7.90;;
5696;SDS011;2873;50.966;7.210;2022-11-15T03:09:07;11.15;;;7.60;;
5696;SDS011;2873;50.966;7.210;2022-11-15T03:11:41;8.60;;;7.30;;
5696;SDS011;2873;50.966;7.210;2022-11-15T03:15:16;7.75;;;6.95;;
5696;SDS011;2873;50.966;7.210;2022-11-15T03:17:18;8.73;;;7.13;;
5696;SDS011;2873;50.966;7.210;2022-11-15T03:19:56;9.30;;;6.80;;
5696;SDS011;2873;50.966;7.210;2022-11-15T03:22:24;10.60;;;6.80;;
5696;SDS011;2873;50.966;7.210;2022-11-15T03:24:54;9.37;;;7.23;;
5696;SDS011;2873;50.966;7.210;2022-11-15T03:27:24;12.40;;;6.93;;
5696;SDS011;2873;50.966;7.210;2022-11-15T03:29:57;9.33;;;6.83;;
5696;SDS011;2873;50.966;7.210;2022-11-15T03:32:29;9.18;;;7.10;;
5696;SDS011;2873;50.966;7.210;2022-11-15T03:34:59;8.18;;;7.38;;
5696;SDS011;2873;50.966;7.210;2022-11-15T03:37:34;8.52;;;7.63;;
5696;SDS011;2873;50.966;7.210;2022-11-15T03:40:22;9.95;;;7.72;;
5696;SDS011;2873;50.966;7.210;2022-11-15T03:45:41;12.48;;;8.57;;
5696;SDS011;2873;50.966;7.210;2022-11-15T03:48:16;12.18;;;9.05;;
5696;SDS011;2873;50.966;7.210;2022-11-15T03:50:46;9.88;;;8.02;;
5696;SDS011;2873;50.966;7.210;2022-11-15T03:53:13;10.40;;;8.07;;
5696;SDS011;2873;50.966;7.210;2022-11-15T03:55:39;11.80;;;8.65;;
5696;SDS011;2873;50.966;7.210;2022-11-15T03:58:04;12.27;;;8.30;;
5696;SDS011;2873;50.966;7.210;2022-11-15T04:00:30;9.77;;;7.63;;
5696;SDS011;2873;50.966;7.210;2022-11-15T04:02:56;9.25;;;7.75;;
5696;SDS011;2873;50.966;7.210;2022-11-15T04:05:21;10.23;;;8.20;;
5696;SDS011;2873;50.966;7.210;2022-11-15T04:07:47;8.33;;;7.33;;
5696;SDS011;2873;50.966;7.210;2022-11-15T04:10:12;10.70;;;7.60;;
5696;SDS011;2873;50.966;7.210;2022-11-15T04:12:42;10.20;;;8.00;;
5696;SDS011;2873;50.966;7.210;2022-11-15T04:15:15;8.23;;;7.30;;
5696;SDS011;2873;50.966;7.210;2022-11-15T04:17:49;10.93;;;7.40;;
5696;SDS011;2873;50.966;7.210;2022-11-15T04:23:15;8.80;;;7.90;;
5696;SDS011;2873;50.966;7.210;2022-11-15T04:26:10;9.13;;;7.43;;
5696;SDS011;2873;50.966;7.210;2022-11-15T04:28:39;8.27;;;7.47;;
5696;SDS011;2873;50.966;7.210;2022-11-15T04:31:25;8.10;;;7.30;;
5696;SDS011;2873;50.966;7.210;2022-11-15T04:33:50;9.93;;;7.90;;
5696;SDS011;2873;50.966;7.210;2022-11-15T04:36:16;9.40;;;7.43;;
5696;SDS011;2873;50.966;7.210;2022-11-15T04:39:00;8.68;;;7.50;;
5696;SDS011;2873;50.966;7.210;2022-11-15T04:41:25;9.57;;;7.63;;
5696;SDS011;2873;50.966;7.210;2022-11-15T04:43:51;9.53;;;7.57;;
5696;SDS011;2873;50.966;7.210;2022-11-15T04:46:17;9.20;;;7.30;;
5696;SDS011;2873;50.966;7.210;2022-11-15T04:48:42;7.82;;;6.60;;
5696;SDS011;2873;50.966;7.210;2022-11-15T04:51:08;10.00;;;7.60;;
5696;SDS011;2873;50.966;7.210;2022-11-15T04:53:33;9.60;;;7.60;;
5696;SDS011;2873;50.966;7.210;2022-11-15T04:55:59;8.90;;;6.73;;
5696;SDS011;2873;50.966;7.210;2022-11-15T04:58:24;8.20;;;6.70;;
5696;SDS011;2873;50.966;7.210;2022-11-15T05:00:50;8.90;;;7.30;;
5696;SDS011;2873;50.966;7.210;2022-11-15T05:03:16;8.43;;;7.27;;
5696;SDS011;2873;50.966;7.210;2022-11-15T05:06:00;14.05;;;11.13;;
5696;SDS011;2873;50.966;7.210;2022-11-15T05:08:26;7.57;;;6.77;;
5696;SDS011;2873;50.966;7.210;2022-11-15T05:10:51;7.43;;;6.63;;
5696;SDS011;2873;50.966;7.210;2022-11-15T05:13:17;9.53;;;7.67;;
5696;SDS011;2873;50.966;7.210;2022-11-15T05:15:42;8.50;;;7.07;;
5696;SDS011;2873;50.966;7.210;2022-11-15T05:18:08;7.13;;;6.43;;
5696;SDS011;2873;50.966;7.210;2022-11-15T05:20:33;7.03;;;6.32;;
5696;SDS011;2873;50.966;7.210;2022-11-15T05:22:59;9.70;;;6.50;;
5696;SDS011;2873;50.966;7.210;2022-11-15T05:25:25;7.17;;;6.40;;
5696;SDS011;2873;50.966;7.210;2022-11-15T05:27:50;8.52;;;6.55;;
5696;SDS011;2873;50.966;7.210;2022-11-15T05:30:16;8.40;;;6.70;;
5696;SDS011;2873;50.966;7.210;2022-11-15T05:32:42;7.00;;;6.30;;
5696;SDS011;2873;50.966;7.210;2022-11-15T05:35:09;7.30;;;5.82;;
5696;SDS011;2873;50.966;7.210;2022-11-15T05:38:03;7.22;;;6.25;;
5696;SDS011;2873;50.966;7.210;2022-11-15T05:40:29;6.90;;;5.95;;
5696;SDS011;2873;50.966;7.210;2022-11-15T05:42:56;9.27;;;5.90;;
5696;SDS011;2873;50.966;7.210;2022-11-15T05:45:22;6.60;;;5.40;;
5696;SDS011;2873;50.966;7.210;2022-11-15T05:47:48;8.70;;;5.72;;
5696;SDS011;2873;50.966;7.210;2022-11-15T05:50:15;7.30;;;5.20;;
5696;SDS011;2873;50.966;7.210;2022-11-15T05:52:42;7.60;;;5.35;;
5696;SDS011;2873;50.966;7.210;2022-11-15T05:55:10;7.38;;;4.90;;
5696;SDS011;2873;50.966;7.210;2022-11-15T05:57:35;5.78;;;4.93;;
5696;SDS011;2873;50.966;7.210;2022-11-15T06:00:01;8.43;;;4.87;;
5696;SDS011;2873;50.966;7.210;2022-11-15T06:02:28;6.18;;;4.88;;
5696;SDS011;2873;50.966;7.210;2022-11-15T06:04:54;6.93;;;4.65;;
5696;SDS011;2873;50.966;7.210;2022-11-15T06:07:19;4.90;;;4.50;;
5696;SDS011;2873;50.966;7.210;2022-11-15T06:09:45;5.63;;;5.00;;
5696;SDS011;2873;50.966;7.210;2022-11-15T06:12:10;4.60;;;4.20;;
5696;SDS011;2873;50.966;7.210;2022-11-15T06:14:36;5.70;;;4.70;;
5696;SDS011;2873;50.966;7.210;2022-11-15T06:17:01;6.10;;;4.50;;
5696;SDS011;2873;50.966;7.210;2022-11-15T06:19:27;4.90;;;4.50;;
5696;SDS011;2873;50.966;7.210;2022-11-15T06:21:57;5.17;;;4.53;;
5696;SDS011;2873;50.966;7.210;2022-11-15T06:24:23;5.00;;;4.60;;
5696;SDS011;2873;50.966;7.210;2022-11-15T06:26:49;6.87;;;4.27;;
5696;SDS011;2873;50.966;7.210;2022-11-15T06:29:14;4.90;;;4.50;;
5696;SDS011;2873;50.966;7.210;2022-11-15T06:31:40;4.22;;;3.83;;
5696;SDS011;2873;50.966;7.210;2022-11-15T06:34:05;4.80;;;4.30;;
5696;SDS011;2873;50.966;7.210;2022-11-15T06:36:31;4.30;;;4.00;;
5696;SDS011;2873;50.966;7.210;2022-11-15T06:38:59;4.60;;;4.20;;
5696;SDS011;2873;50.966;7.210;2022-11-15T06:41:25;4.50;;;3.70;;
5696;SDS011;2873;50.966;7.210;2022-11-15T06:43:51;5.43;;;4.00;;
5696;SDS011;2873;50.966;7.210;2022-11-15T06:46:16;6.63;;;4.63;;
5696;SDS011;2873;50.966;7.210;2022-11-15T06:48:42;4.40;;;3.42;;
5696;SDS011;2873;50.966;7.210;2022-11-15T06:51:15;5.15;;;4.30;;
5696;SDS011;2873;50.966;7.210;2022-11-15T06:53:41;6.57;;;3.90;;
5696;SDS011;2873;50.966;7.210;2022-11-15T06:56:06;4.00;;;3.70;;
5696;SDS011;2873;50.966;7.210;2022-11-15T06:58:33;6.80;;;4.20;;
5696;SDS011;2873;50.966;7.210;2022-11-15T07:01:00;3.97;;;3.58;;
5696;SDS011;2873;50.966;7.210;2022-11-15T07:03:27;4.10;;;3.60;;
5696;SDS011;2873;50.966;7.210;2022-11-15T07:05:53;3.67;;;3.47;;
5696;SDS011;2873;50.966;7.210;2022-11-15T07:08:21;3.78;;;3.47;;
5696;SDS011;2873;50.966;7.210;2022-11-15T07:10:47;3.53;;;3.33;;
5696;SDS011;2873;50.966;7.210;2022-11-15T07:13:13;3.30;;;3.00;;
5696;SDS011;2873;50.966;7.210;2022-11-15T07:15:38;3.90;;;3.60;;
5696;SDS011;2873;50.966;7.210;2022-11-15T07:18:04;3.20;;;3.00;;
5696;SDS011;2873;50.966;7.210;2022-11-15T07:20:29;4.20;;;2.83;;
5696;SDS011;2873;50.966;7.210;2022-11-15T07:23:01;3.30;;;3.10;;
5696;SDS011;2873;50.966;7.210;2022-11-15T07:25:28;3.58;;;3.08;;
5696;SDS011;2873;50.966;7.210;2022-11-15T07:27:57;3.75;;;2.92;;
5696;SDS011;2873;50.966;7.210;2022-11-15T07:30:23;3.10;;;2.90;;
5696;SDS011;2873;50.966;7.210;2022-11-15T07:32:57;2.78;;;2.40;;
5696;SDS011;2873;50.966;7.210;2022-11-15T07:35:24;2.92;;;2.63;;
5696;SDS011;2873;50.966;7.210;2022-11-15T07:37:54;5.75;;;2.70;;
5696;SDS011;2873;50.966;7.210;2022-11-15T07:40:25;2.88;;;2.70;;
5696;SDS011;2873;50.966;7.210;2022-11-15T07:42:51;2.47;;;2.28;;
5696;SDS011;2873;50.966;7.210;2022-11-15T07:45:21;2.35;;;2.25;;
5696;SDS011;2873;50.966;7.210;2022-11-15T07:47:48;2.10;;;2.00;;
5696;SDS011;2873;50.966;7.210;2022-11-15T07:50:14;3.55;;;1.90;;
5696;SDS011;2873;50.966;7.210;2022-11-15T07:52:40;2.30;;;2.20;;
5696;SDS011;2873;50.966;7.210;2022-11-15T07:55:06;2.77;;;2.07;;
5696;SDS011;2873;50.966;7.210;2022-11-15T07:57:32;3.20;;;2.17;;
5696;SDS011;2873;50.966;7.210;2022-11-15T07:59:58;2.00;;;1.88;;
5696;SDS011;2873;50.966;7.210;2022-11-15T08:02:23;2.30;;;2.10;;
5696;SDS011;2873;50.966;7.210;2022-11-15T08:04:49;3.00;;;2.00;;
5696;SDS011;2873;50.966;7.210;2022-11-15T08:07:14;2.00;;;1.90;;
5696;SDS011;2873;50.966;7.210;2022-11-15T08:09:40;2.13;;;1.90;;
5696;SDS011;2873;50.966;7.210;2022-11-15T08:12:06;1.50;;;1.50;;
5696;SDS011;2873;50.966;7.210;2022-11-15T08:14:31;2.13;;;1.93;;
5696;SDS011;2873;50.966;7.210;2022-11-15T08:16:57;1.70;;;1.60;;
5696;SDS011;2873;50.966;7.210;2022-11-15T08:19:23;4.03;;;1.85;;
5696;SDS011;2873;50.966;7.210;2022-11-15T08:21:48;3.40;;;2.10;;
5696;SDS011;2873;50.966;7.210;2022-11-15T08:24:14;2.00;;;1.80;;
5696;SDS011;2873;50.966;7.210;2022-11-15T08:26:40;1.80;;;1.70;;
5696;SDS011;2873;50.966;7.210;2022-11-15T08:29:05;4.30;;;2.20;;
5696;SDS011;2873;50.966;7.210;2022-11-15T08:31:33;2.10;;;2.00;;
5696;SDS011;2873;50.966;7.210;2022-11-15T08:33:59;1.85;;;1.75;;
5696;SDS011;2873;50.966;7.210;2022-11-15T08:36:25;2.20;;;2.00;;
5696;SDS011;2873;50.966;7.210;2022-11-15T08:38:51;2.37;;;1.97;;
5696;SDS011;2873;50.966;7.210;2022-11-15T08:41:19;3.08;;;1.80;;
5696;SDS011;2873;50.966;7.210;2022-11-15T08:43:55;2.72;;;2.30;;
5696;SDS011;2873;50.966;7.210;2022-11-15T08:46:21;2.10;;;1.80;;
5696;SDS011;2873;50.966;7.210;2022-11-15T08:48:46;2.20;;;2.10;;
5696;SDS011;2873;50.966;7.210;2022-11-15T08:51:12;1.80;;;1.70;;
5696;SDS011;2873;50.966;7.210;2022-11-15T08:53:37;3.65;;;2.35;;
5696;SDS011;2873;50.966;7.210;2022-11-15T08:56:05;2.20;;;2.10;;
5696;SDS011;2873;50.966;7.210;2022-11-15T08:58:32;2.70;;;1.92;;
5696;SDS011;2873;50.966;7.210;2022-11-15T09:00:58;3.10;;;2.30;;
5696;SDS011;2873;50.966;7.210;2022-11-15T09:03:24;2.30;;;2.10;;
5696;SDS011;2873;50.966;7.210;2022-11-15T09:05:53;3.10;;;2.08;;
5696;SDS011;2873;50.966;7.210;2022-11-15T09:08:23;5.25;;;2.28;;
5696;SDS011;2873;50.966;7.210;2022-11-15T09:10:49;3.20;;;2.20;;
5696;SDS011;2873;50.966;7.210;2022-11-15T09:13:15;2.40;;;2.20;;
5696;SDS011;2873;50.966;7.210;2022-11-15T09:15:41;2.20;;;2.00;;
5696;SDS011;2873;50.966;7.210;2022-11-15T09:18:06;2.60;;;1.80;;
5696;SDS011;2873;50.966;7.210;2022-11-15T09:20:32;2.00;;;1.90;;
5696;SDS011;2873;50.966;7.210;2022-11-15T09:23:01;3.45;;;1.90;;
5696;SDS011;2873;50.966;7.210;2022-11-15T09:25:28;1.55;;;1.50;;
5696;SDS011;2873;50.966;7.210;2022-11-15T09:27:54;1.60;;;1.50;;
5696;SDS011;2873;50.966;7.210;2022-11-15T09:30:20;1.83;;;1.73;;
5696;SDS011;2873;50.966;7.210;2022-11-15T09:32:45;2.70;;;1.57;;
5696;SDS011;2873;50.966;7.210;2022-11-15T09:35:11;1.53;;;1.33;;
5696;SDS011;2873;50.966;7.210;2022-11-15T09:37:36;2.70;;;1.50;;
5696;SDS011;2873;50.966;7.210;2022-11-15T09:40:02;1.60;;;1.50;;
5696;SDS011;2873;50.966;7.210;2022-11-15T09:46:22;2.03;;;1.63;;
5696;SDS011;2873;50.966;7.210;2022-11-15T09:50:48;1.40;;;1.30;;
5696;SDS011;2873;50.966;7.210;2022-11-15T09:55:48;2.00;;;1.17;;
5696;SDS011;2873;50.966;7.210;2022-11-15T10:01:12;1.30;;;1.00;;
5696;SDS011;2873;50.966;7.210;2022-11-15T10:03:44;1.00;;;0.90;;
5696;SDS011;2873;50.966;7.210;2022-11-15T10:06:17;2.53;;;1.10;;
5696;SDS011;2873;50.966;7.210;2022-11-15T10:11:38;0.90;;;0.90;;
5696;SDS011;2873;50.966;7.210;2022-11-15T10:14:13;1.20;;;1.10;;
5696;SDS011;2873;50.966;7.210;2022-11-15T10:16:57;1.25;;;0.95;;
5696;SDS011;2873;50.966;7.210;2022-11-15T10:22:41;3.30;;;1.20;;
5696;SDS011;2873;50.966;7.210;2022-11-15T10:25:24;2.42;;;1.17;;
5696;SDS011;2873;50.966;7.210;2022-11-15T10:30:46;2.10;;;0.90;;
5696;SDS011;2873;50.966;7.210;2022-11-15T10:38:49;0.90;;;0.80;;
5696;SDS011;2873;50.966;7.210;2022-11-15T10:41:17;1.20;;;0.80;;
5696;SDS011;2873;50.966;7.210;2022-11-15T10:44:01;1.83;;;1.20;;
5696;SDS011;2873;50.966;7.210;2022-11-15T10:46:37;2.30;;;0.98;;
5696;SDS011;2873;50.966;7.210;2022-11-15T10:49:17;1.65;;;1.00;;
5696;SDS011;2873;50.966;7.210;2022-11-15T10:57:05;1.30;;;1.00;;
5696;SDS011;2873;50.966;7.210;2022-11-15T10:59:36;1.30;;;1.10;;
5696;SDS011;2873;50.966;7.210;2022-11-15T11:02:20;1.58;;;0.95;;
5696;SDS011;2873;50.966;7.210;2022-11-15T11:04:53;2.13;;;1.08;;
5696;SDS011;2873;50.966;7.210;2022-11-15T11:07:23;1.47;;;1.10;;
5696;SDS011;2873;50.966;7.210;2022-11-15T11:10:00;3.17;;;0.80;;
5696;SDS011;2873;50.966;7.210;2022-11-15T11:12:35;1.40;;;0.80;;
5696;SDS011;2873;50.966;7.210;2022-11-15T11:15:05;2.50;;;1.10;;
5696;SDS011;2873;50.966;7.210;2022-11-15T11:17:56;0.90;;;0.90;;
5696;SDS011;2873;50.966;7.210;2022-11-15T11:20:42;5.70;;;2.15;;
5696;SDS011;2873;50.966;7.210;2022-11-15T11:23:24;2.60;;;0.95;;
5696;SDS011;2873;50.966;7.210;2022-11-15T11:29:14;1.50;;;1.13;;
5696;SDS011;2873;50.966;7.210;2022-11-15T11:32:46;1.55;;;0.70;;
5696;SDS011;2873;50.966;7.210;2022-11-15T11:34:54;1.10;;;0.80;;
5696;SDS011;2873;50.966;7.210;2022-11-15T11:37:49;1.10;;;0.70;;
5696;SDS011;2873;50.966;7.210;2022-11-15T11:51:27;2.28;;;0.60;;
5696;SDS011;2873;50.966;7.210;2022-11-15T11:54:05;1.45;;;0.60;;
5696;SDS011;2873;50.966;7.210;2022-11-15T11:56:36;1.65;;;0.77;;
5696;SDS011;2873;50.966;7.210;2022-11-15T11:59:16;1.93;;;0.70;;
5696;SDS011;2873;50.966;7.210;2022-11-15T12:01:59;1.50;;;0.60;;
5696;SDS011;2873;50.966;7.210;2022-11-15T12:04:36;1.33;;;0.70;;
5696;SDS011;2873;50.966;7.210;2022-11-15T12:09:41;1.17;;;0.80;;
5696;SDS011;2873;50.966;7.210;2022-11-15T12:12:11;5.78;;;0.90;;
5696;SDS011;2873;50.966;7.210;2022-11-15T12:14:50;2.30;;;0.60;;
5696;SDS011;2873;50.966;7.210;2022-11-15T12:17:24;1.40;;;0.80;;
5696;SDS011;2873;50.966;7.210;2022-11-15T12:19:51;0.90;;;0.50;;
5696;SDS011;2873;50.966;7.210;2022-11-15T12:22:36;2.30;;;0.88;;
5696;SDS011;2873;50.966;7.210;2022-11-15T12:28:20;2.05;;;0.80;;
5696;SDS011;2873;50.966;7.210;2022-11-15T12:31:01;1.30;;;0.60;;
5696;SDS011;2873;50.966;7.210;2022-11-15T12:33:45;1.00;;;0.70;;
5696;SDS011;2873;50.966;7.210;2022-11-15T12:39:00;3.07;;;0.90;;
5696;SDS011;2873;50.966;7.210;2022-11-15T12:43:57;1.50;;;1.00;;
5696;SDS011;2873;50.966;7.210;2022-11-15T12:48:56;1.50;;;0.80;;
5696;SDS011;2873;50.966;7.210;2022-11-15T12:59:49;2.30;;;1.33;;
5696;SDS011;2873;50.966;7.210;2022-11-15T13:10:28;4.90;;;1.50;;
5696;SDS011;2873;50.966;7.210;2022-11-15T13:18:30;4.63;;;1.65;;
5696;SDS011;2873;50.966;7.210;2022-11-15T13:20:56;2.50;;;1.90;;
5696;SDS011;2873;50.966;7.210;2022-11-15T13:23:22;5.18;;;1.75;;
5696;SDS011;2873;50.966;7.210;2022-11-15T13:28:52;3.60;;;2.20;;
5696;SDS011;2873;50.966;7.210;2022-11-15T13:34:12;2.40;;;2.20;;
5696;SDS011;2873;50.966;7.210;2022-11-15T13:36:42;2.58;;;2.38;;
5696;SDS011;2873;50.966;7.210;2022-11-15T13:39:41;3.65;;;2.22;;
5696;SDS011;2873;50.966;7.210;2022-11-15T13:42:02;3.00;;;2.00;;
5696;SDS011;2873;50.966;7.210;2022-11-15T13:44:29;2.00;;;1.90;;
5696;SDS011;2873;50.966;7.210;2022-11-15T13:47:15;2.17;;;2.00;;
5696;SDS011;2873;50.966;7.210;2022-11-15T13:49:43;3.25;;;2.40;;
5696;SDS011;2873;50.966;7.210;2022-11-15T13:52:14;4.53;;;2.40;;
5696;SDS011;2873;50.966;7.210;2022-11-15T13:57:20;2.13;;;2.03;;
5696;SDS011;2873;50.966;7.210;2022-11-15T13:59:52;3.10;;;2.10;;
5696;SDS011;2873;50.966;7.210;2022-11-15T14:02:29;5.80;;;2.50;;
5696;SDS011;2873;50.966;7.210;2022-11-15T14:04:58;3.80;;;2.60;;
5696;SDS011;2873;50.966;7.210;2022-11-15T14:07:27;3.30;;;2.70;;
5696;SDS011;2873;50.966;7.210;2022-11-15T14:09:54;2.28;;;2.17;;
5696;SDS011;2873;50.966;7.210;2022-11-15T14:14:55;2.13;;;1.80;;
5696;SDS011;2873;50.966;7.210;2022-11-15T14:19:54;1.93;;;1.80;;
5696;SDS011;2873;50.966;7.210;2022-11-15T14:27:37;2.38;;;2.17;;
5696;SDS011;2873;50.966;7.210;2022-11-15T14:30:03;3.20;;;1.90;;
5696;SDS011;2873;50.966;7.210;2022-11-15T14:32:37;2.40;;;2.10;;
5696;SDS011;2873;50.966;7.210;2022-11-15T14:35:12;4.40;;;2.60;;
5696;SDS011;2873;50.966;7.210;2022-11-15T14:37:41;5.73;;;2.20;;
5696;SDS011;2873;50.966;7.210;2022-11-15T14:40:08;3.03;;;2.50;;
5696;SDS011;2873;50.966;7.210;2022-11-15T14:42:37;7.38;;;2.78;;
5696;SDS011;2873;50.966;7.210;2022-11-15T14:45:02;6.10;;;2.77;;
5696;SDS011;2873;50.966;7.210;2022-11-15T14:47:33;3.72;;;1.88;;
5696;SDS011;2873;50.966;7.210;2022-11-15T14:49:59;6.40;;;1.90;;
5696;SDS011;2873;50.966;7.210;2022-11-15T14:52:28;3.20;;;2.00;;
5696;SDS011;2873;50.966;7.210;2022-11-15T14:54:58;3.20;;;2.10;;
5696;SDS011;2873;50.966;7.210;2022-11-15T14:57:24;2.80;;;1.80;;
5696;SDS011;2873;50.966;7.210;2022-11-15T14:59:50;2.25;;;1.70;;
5696;SDS011;2873;50.966;7.210;2022-11-15T15:02:17;2.00;;;1.80;;
5696;SDS011;2873;50.966;7.210;2022-11-15T15:04:44;5.25;;;2.00;;
5696;SDS011;2873;50.966;7.210;2022-11-15T15:07:10;2.30;;;2.10;;
5696;SDS011;2873;50.966;7.210;2022-11-15T15:09:35;2.92;;;1.80;;
5696;SDS011;2873;50.966;7.210;2022-11-15T15:12:01;2.57;;;1.80;;
5696;SDS011;2873;50.966;7.210;2022-11-15T15:14:27;3.40;;;1.90;;
5696;SDS011;2873;50.966;7.210;2022-11-15T15:16:52;2.65;;;2.30;;
5696;SDS011;2873;50.966;7.210;2022-11-15T15:19:18;2.00;;;1.70;;
5696;SDS011;2873;50.966;7.210;2022-11-15T15:21:43;2.72;;;1.80;;
5696;SDS011;2873;50.966;7.210;2022-11-15T15:24:13;6.10;;;2.13;;
5696;SDS011;2873;50.966;7.210;2022-11-15T15:26:42;2.42;;;2.22;;
5696;SDS011;2873;50.966;7.210;2022-11-15T15:29:08;2.80;;;2.40;;
5696;SDS011;2873;50.966;7.210;2022-11-15T15:31:34;3.05;;;2.60;;
5696;SDS011;2873;50.966;7.210;2022-11-15T15:34:00;2.80;;;2.50;;
5696;SDS011;2873;50.966;7.210;2022-11-15T15:36:25;3.03;;;2.40;;
5696;SDS011;2873;50.966;7.210;2022-11-15T15:38:51;3.83;;;2.40;;
5696;SDS011;2873;50.966;7.210;2022-11-15T15:41:17;3.97;;;2.45;;
5696;SDS011;2873;50.966;7.210;2022-11-15T15:43:43;5.90;;;2.85;;
5696;SDS011;2873;50.966;7.210;2022-11-15T15:46:10;2.17;;;1.98;;
5696;SDS011;2873;50.966;7.210;2022-11-15T15:48:38;2.40;;;2.03;;
5696;SDS011;2873;50.966;7.210;2022-11-15T15:51:04;5.50;;;2.20;;
5696;SDS011;2873;50.966;7.210;2022-11-15T15:53:30;3.40;;;2.10;;
5696;SDS011;2873;50.966;7.210;2022-11-15T15:55:56;2.25;;;2.05;;
5696;SDS011;2873;50.966;7.210;2022-11-15T15:58:22;1.98;;;1.77;;
5696;SDS011;2873;50.966;7.210;2022-11-15T16:00:47;2.50;;;2.15;;
5696;SDS011;2873;50.966;7.210;2022-11-15T16:03:13;2.40;;;1.93;;
5696;SDS011;2873;50.966;7.210;2022-11-15T16:05:38;3.30;;;2.30;;
5696;SDS011;2873;50.966;7.210;2022-11-15T16:08:04;2.90;;;2.30;;
5696;SDS011;2873;50.966;7.210;2022-11-15T16:10:31;2.47;;;2.10;;
5696;SDS011;2873;50.966;7.210;2022-11-15T16:12:59;2.50;;;2.30;;
5696;SDS011;2873;50.966;7.210;2022-11-15T16:15:25;2.60;;;2.40;;
5696;SDS011;2873;50.966;7.210;2022-11-15T16:17:55;2.03;;;1.90;;
5696;SDS011;2873;50.966;7.210;2022-11-15T16:23:21;2.75;;;2.00;;
5696;SDS011;2873;50.966;7.210;2022-11-15T16:25:53;2.60;;;2.40;;
5696;SDS011;2873;50.966;7.210;2022-11-15T16:28:23;2.03;;;1.92;;
5696;SDS011;2873;50.966;7.210;2022-11-15T16:30:49;3.60;;;2.03;;
5696;SDS011;2873;50.966;7.210;2022-11-15T16:33:32;3.28;;;2.10;;
5696;SDS011;2873;50.966;7.210;2022-11-15T16:35:58;2.10;;;1.90;;
5696;SDS011;2873;50.966;7.210;2022-11-15T16:38:23;2.92;;;2.35;;
5696;SDS011;2873;50.966;7.210;2022-11-15T16:40:49;2.25;;;2.05;;
5696;SDS011;2873;50.966;7.210;2022-11-15T16:43:15;4.97;;;1.80;;
5696;SDS011;2873;50.966;7.210;2022-11-15T16:45:40;2.20;;;2.00;;
5696;SDS011;2873;50.966;7.210;2022-11-15T16:48:06;2.20;;;2.10;;
5696;SDS011;2873;50.966;7.210;2022-11-15T16:50:47;3.90;;;2.40;;
5696;SDS011;2873;50.966;7.210;2022-11-15T16:53:13;1.97;;;1.87;;
5696;SDS011;2873;50.966;7.210;2022-11-15T16:55:38;2.10;;;2.00;;
5696;SDS011;2873;50.966;7.210;2022-11-15T16:58:04;6.95;;;1.90;;
5696;SDS011;2873;50.966;7.210;2022-11-15T17:00:29;2.23;;;2.10;;
5696;SDS011;2873;50.966;7.210;2022-11-15T17:02:55;2.53;;;2.20;;
5696;SDS011;2873;50.966;7.210;2022-11-15T17:05:22;4.93;;;2.40;;
5696;SDS011;2873;50.966;7.210;2022-11-15T17:07:49;3.03;;;2.83;;
5696;SDS011;2873;50.966;7.210;2022-11-15T17:10:19;4.70;;;2.40;;
5696;SDS011;2873;50.966;7.210;2022-11-15T17:12:48;2.40;;;2.20;;
5696;SDS011;2873;50.966;7.210;2022-11-15T17:15:15;3.00;;;2.30;;
5696;SDS011;2873;50.966;7.210;2022-11-15T17:17:40;2.97;;;2.78;;
5696;SDS011;2873;50.966;7.210;2022-11-15T17:20:08;4.50;;;2.70;;
5696;SDS011;2873;50.966;7.210;2022-11-15T17:22:41;2.60;;;2.40;;
5696;SDS011;2873;50.966;7.210;2022-11-15T17:25:07;2.67;;;2.47;;